Latest Weather Observations for Legendre Island

IDW60801

Issued at 9:33 am WST Saturday 2 July 2016 (issued every 30 minutes, with the page automatically refreshed every 10 minutes)

About weather observations | Map of weather stations | Latest weather observations for WA | Other Formats
Station Details ID: 004095 Name: LEGENDRE ISLAND Lat: -20.36 Lon: 116.84 Height: 29.0 m
Data from the previous 72 hours. | See also: Recent months at Legendre Island
Date/Time
WST
Temp
°C
App
Temp
°C
Dew
Point
°C
Rel
Hum
%
Delta-T
°C
Wind Press
QNH
hPa
Press
MSL
hPa
Rain since
9am
mm
Dir  Spd
km/h
Gust
km/h
Spd
kts
Gust
kts
02/09:30am 22.4 17.9 18.2 77 2.6 E 39 44 21 24 1018.1 1018.0 -
02/09:00am 22.4 18.0 18.4 78 2.5 E 39 46 21 25 1017.8 1017.7 -
02/08:30am 22.3 18.3 18.5 79 2.4 E 37 43 20 23 1018.1 1018.0 -
02/08:00am 22.5 19.1 19.1 81 2.2 E 35 43 19 23 1017.8 1017.7 -
02/07:30am 22.4 18.9 18.8 80 2.3 ESE 35 41 19 22 1017.3 1017.2 -
02/07:00am 22.7 19.6 18.9 79 2.4 E 33 41 18 22 1017.3 1017.2 -
02/06:30am 22.8 18.5 18.6 77 2.6 E 39 46 21 25 1016.6 1016.5 -
02/06:00am 22.8 18.6 18.8 78 2.5 E 39 44 21 24 1016.0 1015.9 -
02/05:30am 22.6 19.3 19.2 81 2.2 E 35 39 19 21 1015.8 1015.7 -
02/05:00am 22.8 19.5 19.2 80 2.3 E 35 41 19 22 1015.8 1015.7 -
02/04:30am 22.5 19.1 18.9 80 2.3 E 35 41 19 22 1015.6 1015.5 -
02/04:00am 22.6 18.9 18.4 77 2.6 E 35 39 19 21 1015.8 1015.7 -
02/03:30am 22.9 18.7 18.0 74 3.1 E 37 43 20 23 1016.1 1016.0 -
02/03:00am 23.2 18.9 17.7 71 3.4 E 37 43 20 23 1016.0 1015.9 -
02/02:30am 23.4 20.1 18.3 73 3.2 E 33 41 18 22 1016.0 1015.9 -
02/02:00am 23.5 19.9 17.7 70 3.6 E 33 39 18 21 1016.0 1015.9 -
02/01:30am 23.5 20.5 18.6 74 3.1 E 32 37 17 20 1016.5 1016.4 -
02/01:00am 23.6 20.8 19.1 76 2.9 E 32 35 17 19 1016.5 1016.4 -
02/12:30am 23.6 21.7 19.3 77 2.7 E 28 33 15 18 1016.6 1016.5 -
02/12:00am 23.5 21.1 19.0 76 2.9 E 30 35 16 19 1016.8 1016.7 -
 
Date/Time
WST
Temp
°C
App
Temp
°C
Dew
Point
°C
Rel
Hum
%
Delta-T
°C
Wind Press
QNH
hPa
Press
MSL
hPa
Rain since
9am
mm
Dir  Spd
km/h
Gust
km/h
Spd
kts
Gust
kts
01/11:30pm 23.7 21.1 19.4 77 2.8 E 32 35 17 19 1017.1 1017.0 -
01/11:00pm 23.6 22.3 20.7 84 1.9 E 28 32 15 17 1017.0 1016.9 -
01/10:30pm 23.4 23.4 20.9 86 1.6 E 22 24 12 13 1017.5 1017.4 -
01/10:00pm 23.2 23.5 20.7 86 1.6 ESE 20 22 11 12 1017.6 1017.5 -
01/09:30pm 23.2 23.5 20.7 86 1.6 ESE 20 24 11 13 1017.3 1017.2 -
01/09:00pm 23.1 22.9 20.6 86 1.6 E 22 28 12 15 1017.0 1016.9 -
01/08:30pm 23.0 22.4 20.5 86 1.6 ESE 24 28 13 15 1016.8 1016.7 -
01/08:00pm 22.9 22.1 20.1 84 1.8 ESE 24 30 13 16 1016.6 1016.5 -
01/07:30pm 22.9 21.2 19.7 82 2.1 ESE 28 33 15 18 1016.1 1016.0 -
01/07:00pm 22.8 20.3 18.8 78 2.5 ESE 30 35 16 19 1015.8 1015.7 -
01/06:30pm 22.8 20.4 19.0 79 2.4 ESE 30 35 16 19 1015.8 1015.7 -
01/06:00pm 22.6 20.9 19.0 80 2.3 ESE 26 32 14 17 1015.2 1015.2 -
01/05:30pm 22.5 20.2 18.5 78 2.5 ESE 28 33 15 18 1014.9 1014.9 -
01/05:00pm 22.4 19.0 17.8 75 2.9 ESE 32 39 17 21 1014.8 1014.8 -
01/04:30pm 22.8 20.2 18.6 77 2.6 ESE 30 35 16 19 1014.7 1014.7 -
01/04:00pm 22.5 21.8 18.7 79 2.4 ESE 20 24 11 13 1015.0 1015.0 -
01/03:30pm 22.1 21.6 18.7 81 2.1 SE 19 24 10 13 1015.0 1015.0 -
01/03:00pm 21.7 20.4 18.1 80 2.2 SE 22 28 12 15 1014.8 1014.8 -
01/02:30pm 22.1 19.8 17.7 76 2.7 ESE 26 32 14 17 1015.2 1015.2 -
01/02:00pm 22.0 19.1 18.0 78 2.5 E 30 35 16 19 1015.2 1015.2 -
01/01:30pm 22.2 18.9 17.1 73 3.1 ESE 30 33 16 18 1015.8 1015.7 -
01/01:00pm 22.4 18.5 16.9 71 3.4 ESE 33 39 18 21 1016.1 1016.0 -
01/12:30pm 22.0 18.1 16.9 73 3.1 ESE 33 39 18 21 1016.6 1016.5 -
01/12:00pm 21.7 18.1 16.2 71 3.3 SE 30 39 16 21 1017.1 1017.0 -
01/11:30am 21.7 18.2 16.4 72 3.2 SE 30 41 16 22 1017.7 1017.6 -
01/11:00am 20.8 17.2 17.2 80 2.2 ESE 32 41 17 22 1017.7 1017.6 -
01/10:30am 21.4 17.0 16.6 74 2.9 ESE 35 41 19 22 1018.1 1018.0 -
01/10:00am 21.5 17.2 16.9 75 2.8 ESE 35 43 19 23 1018.2 1018.1 -
01/09:30am 21.5 17.7 17.3 77 2.6 ESE 33 41 18 22 1018.6 1018.5 -
01/09:00am 21.5 17.8 17.5 78 2.5 E 33 39 18 21 1018.3 1018.2 -
01/08:30am 21.5 17.5 17.5 78 2.5 E 35 41 19 22 1017.9 1017.8 -
01/08:00am 20.9 17.2 17.5 81 2.1 ESE 33 41 18 22 1017.5 1017.4 -
01/07:30am 21.1 18.2 17.1 78 2.4 ESE 28 35 15 19 1017.5 1017.3 -
01/07:00am 21.7 18.0 17.5 77 2.6 E 33 37 18 20 1017.0 1016.8 -
01/06:30am 21.5 18.1 17.7 79 2.4 ESE 32 39 17 21 1016.8 1016.6 -
01/06:00am 21.5 17.2 17.7 79 2.3 ESE 37 46 20 25 1016.0 1015.8 -
01/05:30am 21.4 18.1 18.0 81 2.1 ESE 32 37 17 20 1016.1 1015.9 -
01/05:00am 21.3 17.4 17.9 81 2.1 ESE 35 41 19 22 1015.8 1015.6 -
01/04:30am 21.5 18.1 18.1 81 2.1 E 33 37 18 20 1016.1 1015.9 -
01/04:00am 21.2 18.5 18.4 84 1.7 ESE 30 39 16 21 1015.6 1015.4 -
01/03:30am 21.1 17.7 18.1 83 1.9 ESE 33 41 18 22 1015.5 1015.3 -
01/03:00am 21.4 18.8 18.6 84 1.8 ESE 30 37 16 20 1015.8 1015.6 -
01/02:30am 21.5 19.8 18.9 85 1.6 ESE 26 33 14 18 1016.4 1016.2 -
01/02:00am 21.8 19.4 19.9 89 1.2 ESE 32 35 17 19 1016.5 1016.3 -
01/01:30am 21.7 19.3 20.0 90 1.1 ESE 32 35 17 19 1016.7 1016.5 -
01/01:00am 21.8 19.6 20.3 91 1.0 ESE 32 35 17 19 1017.0 1016.8 -
01/12:30am 21.5 19.5 20.7 95 0.5 ESE 32 37 17 20 1016.8 1016.6 -
01/12:00am 21.4 19.3 20.9 97 0.3 ESE 33 39 18 21 1016.9 1016.7 -
 
Date/Time
WST
Temp
°C
App
Temp
°C
Dew
Point
°C
Rel
Hum
%
Delta-T
°C
Wind Press
QNH
hPa
Press
MSL
hPa
Rain since
9am
mm
Dir  Spd
km/h
Gust
km/h
Spd
kts
Gust
kts
30/11:30pm 21.2 19.7 21.0 99 0.1 ESE 30 35 16 19 1017.2 1017.0 -
30/11:00pm 21.1 20.4 21.1 100 0.0 SE 26 33 14 18 1017.5 1017.3 -
30/10:30pm 21.1 20.0 21.1 100 0.0 SE 28 37 15 20 1017.6 1017.4 -
30/10:00pm 21.1 20.8 21.1 100 0.0 SE 24 32 13 17 1017.9 1017.7 -
30/09:30pm 21.2 21.0 21.2 100 0.0 SE 24 32 13 17 1017.6 1017.4 -
30/09:00pm 22.0 21.5 21.5 97 0.3 ESE 26 32 14 17 1017.8 1017.6 -
30/08:30pm 22.1 21.7 21.6 97 0.3 ESE 26 32 14 17 1017.6 1017.4 -
30/08:00pm 21.9 21.8 21.4 97 0.3 ESE 24 30 13 16 1017.3 1017.1 -
30/07:30pm 22.1 21.5 21.9 99 0.1 ESE 28 33 15 18 1016.7 1016.5 -
30/07:00pm 22.3 22.5 22.0 98 0.2 ESE 24 32 13 17 1016.5 1016.3 -
30/06:30pm 22.1 21.9 21.3 95 0.5 SE 24 37 13 20 1016.1 1015.9 -
30/06:00pm 22.6 23.9 20.9 90 1.1 SSE 15 17 8 9 1016.2 1016.0 -
30/05:30pm 23.2 24.8 21.5 90 1.1 SE 15 19 8 10 1016.0 1015.8 -
30/05:00pm 23.4 24.7 21.7 90 1.1 SE 17 22 9 12 1015.6 1015.4 -
30/04:30pm 23.5 24.1 21.0 86 1.6 SE 19 22 10 12 1015.1 1015.0 -
30/04:00pm 23.8 23.9 20.3 81 2.3 SE 20 26 11 14 1014.9 1014.8 -
30/03:30pm 23.7 23.2 20.0 80 2.4 ESE 22 28 12 15 1014.8 1014.7 -
30/03:00pm 24.1 24.3 20.6 81 2.3 ESE 20 26 11 14 1014.8 1014.7 -
30/02:30pm 23.7 23.1 19.8 79 2.5 ESE 22 26 12 14 1014.7 1014.6 -
30/02:00pm 24.4 23.8 19.7 75 3.0 ESE 22 24 12 13 1015.0 1014.9 -
30/01:30pm 24.6 23.9 19.4 73 3.3 ESE 22 28 12 15 1015.2 1015.1 -
30/01:00pm 24.7 23.7 17.9 66 4.3 ESE 20 28 11 15 1015.3 1015.2 -
30/12:30pm 24.2 23.4 19.3 74 3.1 ESE 22 30 12 16 1015.9 1015.7 -
30/12:00pm 23.1 21.0 19.7 81 2.2 ESE 30 33 16 18 1016.2 1016.0 -
30/11:30am 22.0 19.3 19.2 84 1.8 ESE 32 37 17 20 1016.5 1016.3 -
30/11:00am 22.5 20.7 19.5 83 1.9 SE 28 35 15 19 1017.0 1016.8 -
30/10:30am 22.6 23.0 20.9 90 1.1 SE 20 26 11 14 1017.2 1017.0 -
30/10:00am 22.1 23.7 22.1 100 0.0 SE 17 22 9 12 1017.6 1017.4 -
30/09:30am 21.4 23.3 21.4 100 0.0 SSE 13 15 7 8 1017.8 1017.6 -
30/09:00am 21.1 22.3 20.6 97 0.3 ESE 15 19 8 10 1017.8 1017.6 -
30/08:30am 20.4 20.5 19.1 92 0.8 ENE 17 19 9 10 1017.8 1017.6 -
30/08:00am 22.7 21.8 18.3 76 2.8 ENE 20 22 11 12 1017.8 1017.6 -
30/07:30am 23.4 22.1 18.1 72 3.3 E 22 26 12 14 1017.2 1017.0 -
30/07:00am 23.2 23.7 18.3 74 3.1 ESE 13 17 7 9 1017.0 1016.8 -
30/06:30am 23.9 23.7 18.5 72 3.4 E 17 19 9 10 1016.6 1016.4 -
30/06:00am 23.7 22.6 17.4 68 3.9 NNE 19 22 10 12 1016.2 1016.0 -
30/05:30am 22.7 25.9 21.2 91 1.0 S 6 9 3 5 1016.1 1015.9 -
30/05:00am 22.4 24.1 21.0 92 0.9 SSW 13 15 7 8 1015.7 1015.5 -
30/04:30am 22.1 23.7 20.7 92 0.9 SSW 13 15 7 8 1015.5 1015.3 -
30/04:00am 22.1 23.8 20.9 93 0.8 S 13 15 7 8 1015.3 1015.2 -
30/03:30am 22.1 23.9 21.1 94 0.7 SSW 13 15 7 8 1015.7 1015.5 -
30/03:00am 21.9 23.7 21.1 95 0.5 SSW 13 15 7 8 1015.8 1015.6 -
30/02:30am 21.2 22.5 20.9 98 0.2 SSW 15 15 8 8 1016.0 1015.8 -
30/02:00am 21.3 22.5 20.6 96 0.5 SSW 15 17 8 9 1016.2 1016.0 -
30/01:30am 21.8 23.3 21.3 97 0.3 SSW 15 17 8 9 1016.6 1016.4 -
30/01:00am 21.9 24.1 21.9 100 0.0 SW 13 15 7 8 1017.0 1016.8 -
30/12:30am 21.6 23.3 21.6 100 0.0 SSW 15 17 8 9 1017.1 1016.9 -
30/12:00am 21.8 23.6 21.8 100 0.0 SSW 15 17 8 9 1017.2 1017.0 -
 
Date/Time
WST
Temp
°C
App
Temp
°C
Dew
Point
°C
Rel
Hum
%
Delta-T
°C
Wind Press
QNH
hPa
Press
MSL
hPa
Rain since
9am
mm
Dir  Spd
km/h
Gust
km/h
Spd
kts
Gust
kts
29/11:30pm 21.6 22.9 21.6 100 0.0 SSW 17 20 9 11 1017.3 1017.1 -
29/11:00pm 22.0 24.3 22.0 100 0.0 SSW 13 15 7 8 1017.6 1017.4 -
29/10:30pm 22.3 24.3 21.6 96 0.5 SSW 13 15 7 8 1017.8 1017.6 -
29/10:00pm 22.4 24.2 19.6 84 1.8 SSW 9 17 5 9 1017.9 1017.7 -
29/09:30pm 24.4 26.7 20.7 80 2.4 N 9 9 5 5 1017.6 1017.4 -
29/09:00pm 24.5 26.4 20.6 79 2.5 N 11 13 6 7 1017.4 1017.2 -
29/08:30pm 24.4 26.4 20.7 80 2.4 NNE 11 11 6 6 1017.3 1017.1 -
29/08:00pm 24.3 26.7 20.8 81 2.3 N 9 9 5 5 1017.2 1017.0 -
29/07:30pm 24.1 27.0 20.6 81 2.3 NNE 6 7 3 4 1016.8 1016.6 -
29/07:00pm 24.0 26.4 20.1 79 2.5 NNE 7 7 4 4 1016.8 1016.6 -
29/06:30pm 24.2 26.8 20.1 78 2.7 NNE 6 6 3 3 1016.4 1016.2 -
29/06:00pm 24.3 26.2 19.8 76 2.9 NNE 9 9 5 5 1016.2 1016.0 -
29/05:30pm 24.7 26.6 19.8 74 3.2 NE 9 9 5 5 1015.9 1015.7 -
29/05:00pm 25.0 26.4 18.7 68 4.0 NE 9 9 5 5 1015.7 1015.5 -
29/04:30pm 25.3 26.2 17.5 62 4.9 NE 9 11 5 6 1015.3 1015.2 -
29/04:00pm 25.8 26.1 16.9 58 5.5 NE 11 13 6 7 1015.1 1015.0 -
29/03:30pm 25.4 25.8 17.3 61 5.1 ENE 11 13 6 7 1014.9 1014.8 -
29/03:00pm 25.8 25.9 16.6 56 5.7 ENE 11 13 6 7 1015.0 1014.9 -
29/02:30pm 26.1 26.4 16.9 57 5.7 E 11 11 6 6 1015.0 1014.9 -
29/02:00pm 25.7 25.8 16.5 56 5.7 E 11 13 6 7 1015.0 1014.9 -
29/01:30pm 26.0 26.1 16.5 55 5.9 E 11 13 6 7 1015.2 1015.1 -
29/01:00pm 25.9 25.5 16.2 55 6.0 E 13 17 7 9 1015.5 1015.3 -
29/12:30pm 25.7 24.2 16.3 56 5.8 E 19 20 10 11 1015.9 1015.7 -
29/12:00pm 25.3 24.1 17.0 60 5.1 E 19 20 10 11 1016.3 1016.1 -
29/11:30am 24.9 23.1 16.1 58 5.4 E 20 22 11 12 1016.7 1016.5 -
29/11:00am 25.0 22.9 15.3 55 5.8 ESE 20 22 11 12 1017.0 1016.8 -
29/10:30am 25.0 22.9 15.3 55 5.9 ESE 20 24 11 13 1017.1 1016.9 -
29/10:00am 24.5 22.0 15.1 55 5.6 ESE 22 28 12 15 1017.2 1017.0 -

Other Formats:

Comma delimited format used in spreadsheet applications
http://www.bom.gov.au/fwo/IDW60801/IDW60801.94307.axf

JavaScript Object Notation format (JSON) in row-major order
http://www.bom.gov.au/fwo/IDW60801/IDW60801.94307.json